createdAt,value
2018-07-04T00:02:19.841Z,98551.00
2018-07-04T00:05:06.226Z,98551.00
2018-07-04T00:07:52.316Z,98553.00
2018-07-04T00:10:38.524Z,98555.00
2018-07-04T00:13:24.696Z,98555.00
2018-07-04T00:16:10.959Z,98560.00
2018-07-04T00:18:57.229Z,98559.00
2018-07-04T00:21:43.257Z,98560.00
2018-07-04T00:24:29.366Z,98558.00
2018-07-04T00:27:16.318Z,98563.00
2018-07-04T00:30:02.945Z,98559.00
2018-07-04T00:32:49.117Z,98558.00
2018-07-04T00:35:36.237Z,98559.00
2018-07-04T00:38:22.584Z,98564.00
2018-07-04T00:41:08.553Z,98564.00
2018-07-04T00:43:54.584Z,98560.00
2018-07-04T00:46:40.952Z,98559.00
2018-07-04T00:49:27.094Z,98561.00
2018-07-04T00:52:14.508Z,98558.00
2018-07-04T00:55:00.698Z,98560.00
2018-07-04T00:57:46.569Z,98554.00
2018-07-04T01:00:32.575Z,98560.00
2018-07-04T01:03:18.861Z,98562.00
2018-07-04T01:06:05.240Z,98565.00
2018-07-04T01:08:51.173Z,98565.00
2018-07-04T01:11:37.433Z,98565.00
2018-07-04T01:14:23.560Z,98558.00
2018-07-04T01:17:09.847Z,98557.00
2018-07-04T01:19:56.680Z,98560.00
2018-07-04T01:22:42.881Z,98551.00
2018-07-04T01:25:28.977Z,98551.00
2018-07-04T01:28:15.221Z,98547.00
2018-07-04T01:31:01.324Z,98547.00
2018-07-04T01:33:47.429Z,98550.00
2018-07-04T01:36:33.498Z,98545.00
2018-07-04T01:39:19.741Z,98548.00
2018-07-04T01:42:05.589Z,98556.00
2018-07-04T01:44:51.800Z,98555.00
2018-07-04T01:47:39.165Z,98551.00
2018-07-04T01:50:25.630Z,98548.00
2018-07-04T01:53:11.596Z,98549.00
2018-07-04T01:55:57.693Z,98545.00
2018-07-04T01:58:43.809Z,98545.00
2018-07-04T02:01:31.334Z,98548.00
2018-07-04T02:04:17.368Z,98544.00
2018-07-04T02:07:03.550Z,98551.00
2018-07-04T02:09:49.447Z,98547.00
2018-07-04T02:12:35.732Z,98547.00
2018-07-04T02:15:21.821Z,98546.00
2018-07-04T02:18:08.350Z,98543.00
2018-07-04T02:20:54.216Z,98543.00
2018-07-04T02:23:40.421Z,98537.00
2018-07-04T02:26:26.504Z,98532.00
2018-07-04T02:29:12.626Z,98528.00
2018-07-04T02:31:58.706Z,98530.00
2018-07-04T02:34:44.897Z,98524.00
2018-07-04T02:37:31.808Z,98530.00
2018-07-04T02:40:18.145Z,98528.00
2018-07-04T02:43:04.307Z,98526.00
2018-07-04T02:45:50.361Z,98527.00
2018-07-04T02:48:36.361Z,98524.00
2018-07-04T02:51:22.948Z,98525.00
2018-07-04T02:54:09.097Z,98517.00
2018-07-04T02:56:55.488Z,98514.00
2018-07-04T02:59:41.440Z,98519.00
2018-07-04T03:02:27.622Z,98521.00
2018-07-04T03:05:13.559Z,98524.00
2018-07-04T03:07:59.953Z,98523.00
2018-07-04T03:10:45.968Z,98523.00
2018-07-04T03:13:33.089Z,98526.00
2018-07-04T03:16:19.222Z,98529.00
2018-07-04T03:19:05.455Z,98524.00
2018-07-04T03:21:51.349Z,98525.00
2018-07-04T03:24:37.344Z,98521.00
2018-07-04T03:27:23.424Z,98521.00
2018-07-04T03:30:10.429Z,98522.00
2018-07-04T03:32:56.482Z,98523.00
2018-07-04T03:35:42.565Z,98527.00
2018-07-04T03:38:29.588Z,98533.00
2018-07-04T03:41:15.840Z,98527.00
2018-07-04T03:44:01.946Z,98534.00
2018-07-04T03:46:48.014Z,98535.00
2018-07-04T03:49:34.189Z,98533.00
2018-07-04T03:52:20.521Z,98535.00
2018-07-04T03:55:06.517Z,98540.00
2018-07-04T03:57:52.510Z,98530.00
2018-07-04T04:00:40.448Z,98534.00
2018-07-04T04:03:27.309Z,98537.00
2018-07-04T04:06:13.454Z,98538.00
2018-07-04T04:08:59.725Z,98537.00
2018-07-04T04:11:45.656Z,98533.00
2018-07-04T04:14:31.740Z,98540.00
2018-07-04T04:17:18.154Z,98541.00
2018-07-04T04:20:04.229Z,98544.00
2018-07-04T04:22:50.187Z,98541.00
2018-07-04T04:25:36.568Z,98542.00
2018-07-04T04:28:22.485Z,98542.00
2018-07-04T04:31:08.704Z,98545.00
2018-07-04T04:33:54.787Z,98545.00
2018-07-04T04:36:41.181Z,98548.00
2018-07-04T04:39:27.208Z,98550.00
2018-07-04T04:42:13.161Z,98550.00
2018-07-04T04:44:59.171Z,98551.00
2018-07-04T04:47:45.164Z,98548.00
2018-07-04T04:50:31.216Z,98550.00
2018-07-04T04:53:17.585Z,98550.00
2018-07-04T04:56:03.620Z,98543.00
2018-07-04T04:58:50.572Z,98535.00
2018-07-04T05:01:38.561Z,98535.00
2018-07-04T05:04:24.785Z,98532.00
2018-07-04T05:07:11.280Z,98527.00
2018-07-04T05:09:57.557Z,98528.00
2018-07-04T05:12:43.533Z,98529.00
2018-07-04T05:15:29.901Z,98525.00
2018-07-04T05:18:15.823Z,98522.00
2018-07-04T05:21:02.555Z,98522.00
2018-07-04T05:23:48.669Z,98527.00
2018-07-04T05:26:35.149Z,98528.00
2018-07-04T05:29:21.889Z,98524.00
2018-07-04T05:32:08.408Z,98524.00
2018-07-04T05:34:54.433Z,98525.00
2018-07-04T05:37:40.604Z,98522.00
2018-07-04T05:40:26.549Z,98516.00
2018-07-04T05:43:13.227Z,98517.00
2018-07-04T05:45:59.241Z,98514.00
2018-07-04T05:48:45.317Z,98517.00
2018-07-04T05:51:31.381Z,98517.00
2018-07-04T05:54:17.482Z,98517.00
2018-07-04T05:57:03.417Z,98519.00
2018-07-04T05:59:49.333Z,98517.00
2018-07-04T06:02:35.421Z,98521.00
2018-07-04T06:05:21.508Z,98520.00
2018-07-04T06:08:08.084Z,98526.00
2018-07-04T06:10:54.700Z,98526.00
2018-07-04T06:13:40.824Z,98520.00
2018-07-04T06:16:27.104Z,98516.00
2018-07-04T06:19:13.225Z,98521.00
2018-07-04T06:21:59.393Z,98511.00
2018-07-04T06:24:45.880Z,98512.00
2018-07-04T06:27:34.443Z,98518.00
2018-07-04T06:30:20.404Z,98515.00
2018-07-04T06:33:06.482Z,98514.00
2018-07-04T06:35:53.805Z,98516.00
2018-07-04T06:38:21.385Z,98519.00
2018-07-04T06:40:49.601Z,98514.00
2018-07-04T06:43:17.452Z,98521.00
2018-07-04T06:45:45.089Z,98513.00
2018-07-04T06:48:12.665Z,98514.00
2018-07-04T06:50:40.525Z,98514.00
2018-07-04T06:53:08.122Z,98515.00
2018-07-04T06:55:35.782Z,98510.00
2018-07-04T06:58:03.601Z,98514.00
2018-07-04T07:00:32.795Z,98512.00
2018-07-04T07:03:18.757Z,98506.00
2018-07-04T07:06:04.624Z,98505.00
2018-07-04T07:08:52.101Z,98509.00
2018-07-04T07:11:38.015Z,98506.00
2018-07-04T07:14:24.192Z,98508.00
2018-07-04T07:17:10.228Z,98506.00
